sensor_id;sensor_type;location;lat;lon;timestamp;temperature;humidity
47590;DHT22;33316;52.298;9.056;2022-10-26T00:01:24;12.70;86.70
47590;DHT22;33316;52.298;9.056;2022-10-26T00:03:54;12.70;86.60
47590;DHT22;33316;52.298;9.056;2022-10-26T00:06:23;12.70;86.60
47590;DHT22;33316;52.298;9.056;2022-10-26T00:08:51;12.70;86.60
47590;DHT22;33316;52.298;9.056;2022-10-26T00:11:19;12.70;86.50
47590;DHT22;33316;52.298;9.056;2022-10-26T00:13:47;12.70;86.50
47590;DHT22;33316;52.298;9.056;2022-10-26T00:16:16;12.70;86.50
47590;DHT22;33316;52.298;9.056;2022-10-26T00:18:44;12.70;86.50
47590;DHT22;33316;52.298;9.056;2022-10-26T00:21:11;12.70;86.50
47590;DHT22;33316;52.298;9.056;2022-10-26T00:23:38;12.70;86.40
47590;DHT22;33316;52.298;9.056;2022-10-26T00:26:05;12.70;86.40
47590;DHT22;33316;52.298;9.056;2022-10-26T00:28:32;12.70;86.40
47590;DHT22;33316;52.298;9.056;2022-10-26T00:31:06;12.60;86.40
47590;DHT22;33316;52.298;9.056;2022-10-26T00:33:33;12.70;86.50
47590;DHT22;33316;52.298;9.056;2022-10-26T00:36:00;12.70;86.50
47590;DHT22;33316;52.298;9.056;2022-10-26T00:38:26;12.70;86.50
47590;DHT22;33316;52.298;9.056;2022-10-26T00:40:53;12.70;86.50
47590;DHT22;33316;52.298;9.056;2022-10-26T00:43:35;12.60;86.40
47590;DHT22;33316;52.298;9.056;2022-10-26T00:46:07;12.60;86.30
47590;DHT22;33316;52.298;9.056;2022-10-26T00:48:36;12.50;85.40
47590;DHT22;33316;52.298;9.056;2022-10-26T00:51:07;12.50;85.00
47590;DHT22;33316;52.298;9.056;2022-10-26T00:53:34;12.40;84.70
47590;DHT22;33316;52.298;9.056;2022-10-26T00:56:02;12.30;84.40
47590;DHT22;33316;52.298;9.056;2022-10-26T00:58:29;12.30;84.40
47590;DHT22;33316;52.298;9.056;2022-10-26T01:00:57;12.20;84.40
47590;DHT22;33316;52.298;9.056;2022-10-26T01:03:25;12.20;84.30
47590;DHT22;33316;52.298;9.056;2022-10-26T01:05:56;12.10;84.20
47590;DHT22;33316;52.298;9.056;2022-10-26T01:08:24;12.10;84.40
47590;DHT22;33316;52.298;9.056;2022-10-26T01:10:52;12.10;84.80
47590;DHT22;33316;52.298;9.056;2022-10-26T01:13:20;12.10;85.40
47590;DHT22;33316;52.298;9.056;2022-10-26T01:15:52;12.10;85.60
47590;DHT22;33316;52.298;9.056;2022-10-26T01:18:29;12.10;85.80
47590;DHT22;33316;52.298;9.056;2022-10-26T01:24:06;12.10;86.00
47590;DHT22;33316;52.298;9.056;2022-10-26T01:26:52;12.20;86.20
47590;DHT22;33316;52.298;9.056;2022-10-26T01:32:21;12.20;86.20
47590;DHT22;33316;52.298;9.056;2022-10-26T01:34:54;12.20;86.20
47590;DHT22;33316;52.298;9.056;2022-10-26T01:37:29;12.10;86.20
47590;DHT22;33316;52.298;9.056;2022-10-26T01:40:01;12.10;86.30
47590;DHT22;33316;52.298;9.056;2022-10-26T01:42:31;12.10;86.20
47590;DHT22;33316;52.298;9.056;2022-10-26T01:45:01;12.10;85.80
47590;DHT22;33316;52.298;9.056;2022-10-26T01:47:32;12.10;85.60
47590;DHT22;33316;52.298;9.056;2022-10-26T01:50:01;12.00;85.20
47590;DHT22;33316;52.298;9.056;2022-10-26T01:52:29;11.90;84.60
47590;DHT22;33316;52.298;9.056;2022-10-26T01:55:00;11.90;84.20
47590;DHT22;33316;52.298;9.056;2022-10-26T01:57:27;11.80;83.90
47590;DHT22;33316;52.298;9.056;2022-10-26T02:00:03;11.70;83.40
47590;DHT22;33316;52.298;9.056;2022-10-26T02:02:55;11.70;83.70
47590;DHT22;33316;52.298;9.056;2022-10-26T02:05:32;11.60;83.70
47590;DHT22;33316;52.298;9.056;2022-10-26T02:11:11;11.50;84.40
47590;DHT22;33316;52.298;9.056;2022-10-26T02:13:43;11.40;84.50
47590;DHT22;33316;52.298;9.056;2022-10-26T02:16:18;11.40;84.60
47590;DHT22;33316;52.298;9.056;2022-10-26T02:18:52;11.40;84.50
47590;DHT22;33316;52.298;9.056;2022-10-26T02:21:24;11.40;84.60
47590;DHT22;33316;52.298;9.056;2022-10-26T02:23:54;11.40;84.90
47590;DHT22;33316;52.298;9.056;2022-10-26T02:26:24;11.40;85.00
47590;DHT22;33316;52.298;9.056;2022-10-26T02:28:55;11.50;85.20
47590;DHT22;33316;52.298;9.056;2022-10-26T02:31:23;11.50;85.30
47590;DHT22;33316;52.298;9.056;2022-10-26T02:33:54;11.50;85.30
47590;DHT22;33316;52.298;9.056;2022-10-26T02:36:25;11.50;85.30
47590;DHT22;33316;52.298;9.056;2022-10-26T02:38:54;11.50;85.70
47590;DHT22;33316;52.298;9.056;2022-10-26T02:41:23;11.60;86.10
47590;DHT22;33316;52.298;9.056;2022-10-26T02:43:53;11.60;86.40
47590;DHT22;33316;52.298;9.056;2022-10-26T02:46:24;11.60;86.70
47590;DHT22;33316;52.298;9.056;2022-10-26T02:48:53;11.70;86.90
47590;DHT22;33316;52.298;9.056;2022-10-26T02:51:26;11.70;86.90
47590;DHT22;33316;52.298;9.056;2022-10-26T02:53:58;11.80;87.10
47590;DHT22;33316;52.298;9.056;2022-10-26T02:56:29;11.80;87.20
47590;DHT22;33316;52.298;9.056;2022-10-26T02:59:01;11.80;87.20
47590;DHT22;33316;52.298;9.056;2022-10-26T03:01:30;11.90;87.40
47590;DHT22;33316;52.298;9.056;2022-10-26T03:03:59;11.90;87.50
47590;DHT22;33316;52.298;9.056;2022-10-26T03:06:26;11.90;87.50
47590;DHT22;33316;52.298;9.056;2022-10-26T03:08:53;11.90;87.50
47590;DHT22;33316;52.298;9.056;2022-10-26T03:11:20;11.90;87.40
47590;DHT22;33316;52.298;9.056;2022-10-26T03:13:46;11.90;87.40
47590;DHT22;33316;52.298;9.056;2022-10-26T03:16:13;11.90;87.40
47590;DHT22;33316;52.298;9.056;2022-10-26T03:18:40;11.90;87.40
47590;DHT22;33316;52.298;9.056;2022-10-26T03:21:08;11.90;87.60
47590;DHT22;33316;52.298;9.056;2022-10-26T03:23:34;11.90;87.30
47590;DHT22;33316;52.298;9.056;2022-10-26T03:26:01;11.90;87.30
47590;DHT22;33316;52.298;9.056;2022-10-26T03:28:28;11.90;87.60
47590;DHT22;33316;52.298;9.056;2022-10-26T03:30:55;11.90;88.00
47590;DHT22;33316;52.298;9.056;2022-10-26T03:33:21;11.90;88.20
47590;DHT22;33316;52.298;9.056;2022-10-26T03:35:53;11.90;89.20
47590;DHT22;33316;52.298;9.056;2022-10-26T03:38:22;11.90;88.70
47590;DHT22;33316;52.298;9.056;2022-10-26T03:40:49;11.90;88.80
47590;DHT22;33316;52.298;9.056;2022-10-26T03:43:16;12.00;89.00
47590;DHT22;33316;52.298;9.056;2022-10-26T03:45:43;11.90;89.00
47590;DHT22;33316;52.298;9.056;2022-10-26T03:48:10;12.00;89.00
47590;DHT22;33316;52.298;9.056;2022-10-26T03:50:37;12.00;89.00
47590;DHT22;33316;52.298;9.056;2022-10-26T03:53:03;12.00;88.70
47590;DHT22;33316;52.298;9.056;2022-10-26T03:55:32;11.90;88.00
47590;DHT22;33316;52.298;9.056;2022-10-26T03:57:58;11.90;87.50
47590;DHT22;33316;52.298;9.056;2022-10-26T04:00:25;11.80;87.10
47590;DHT22;33316;52.298;9.056;2022-10-26T04:02:56;11.70;86.80
47590;DHT22;33316;52.298;9.056;2022-10-26T04:05:25;11.70;86.60
47590;DHT22;33316;52.298;9.056;2022-10-26T04:07:52;11.60;86.50
47590;DHT22;33316;52.298;9.056;2022-10-26T04:10:20;11.50;86.20
47590;DHT22;33316;52.298;9.056;2022-10-26T04:12:48;11.50;86.20
47590;DHT22;33316;52.298;9.056;2022-10-26T04:15:15;11.50;86.10
47590;DHT22;33316;52.298;9.056;2022-10-26T04:17:42;11.40;86.00
47590;DHT22;33316;52.298;9.056;2022-10-26T04:20:10;11.40;86.40
47590;DHT22;33316;52.298;9.056;2022-10-26T04:22:37;11.30;86.60
47590;DHT22;33316;52.298;9.056;2022-10-26T04:25:04;11.30;87.00
47590;DHT22;33316;52.298;9.056;2022-10-26T04:27:31;11.30;87.20
47590;DHT22;33316;52.298;9.056;2022-10-26T04:30:00;11.30;87.30
47590;DHT22;33316;52.298;9.056;2022-10-26T04:32:27;11.40;87.40
47590;DHT22;33316;52.298;9.056;2022-10-26T04:34:53;11.30;87.40
47590;DHT22;33316;52.298;9.056;2022-10-26T04:37:20;11.40;87.60
47590;DHT22;33316;52.298;9.056;2022-10-26T04:39:47;11.40;87.90
47590;DHT22;33316;52.298;9.056;2022-10-26T04:42:13;11.40;88.10
47590;DHT22;33316;52.298;9.056;2022-10-26T04:44:40;11.40;88.20
47590;DHT22;33316;52.298;9.056;2022-10-26T04:47:08;11.40;88.20
47590;DHT22;33316;52.298;9.056;2022-10-26T04:49:35;11.40;88.20
47590;DHT22;33316;52.298;9.056;2022-10-26T04:52:03;11.40;88.90
47590;DHT22;33316;52.298;9.056;2022-10-26T04:54:30;11.40;88.20
47590;DHT22;33316;52.298;9.056;2022-10-26T04:56:57;11.40;88.40
47590;DHT22;33316;52.298;9.056;2022-10-26T04:59:24;11.40;89.20
47590;DHT22;33316;52.298;9.056;2022-10-26T05:01:50;11.40;88.50
47590;DHT22;33316;52.298;9.056;2022-10-26T05:04:18;11.40;88.70
47590;DHT22;33316;52.298;9.056;2022-10-26T05:06:45;11.40;88.90
47590;DHT22;33316;52.298;9.056;2022-10-26T05:09:12;11.50;89.20
47590;DHT22;33316;52.298;9.056;2022-10-26T05:11:40;11.50;89.40
47590;DHT22;33316;52.298;9.056;2022-10-26T05:14:07;11.50;89.60
47590;DHT22;33316;52.298;9.056;2022-10-26T05:16:34;11.60;89.60
47590;DHT22;33316;52.298;9.056;2022-10-26T05:19:01;11.60;89.80
47590;DHT22;33316;52.298;9.056;2022-10-26T05:21:29;11.60;90.00
47590;DHT22;33316;52.298;9.056;2022-10-26T05:23:56;11.70;90.10
47590;DHT22;33316;52.298;9.056;2022-10-26T05:26:23;11.70;90.00
47590;DHT22;33316;52.298;9.056;2022-10-26T05:28:50;11.80;90.00
47590;DHT22;33316;52.298;9.056;2022-10-26T05:31:17;11.80;90.00
47590;DHT22;33316;52.298;9.056;2022-10-26T05:33:47;11.80;89.90
47590;DHT22;33316;52.298;9.056;2022-10-26T05:36:14;11.80;90.00
47590;DHT22;33316;52.298;9.056;2022-10-26T05:38:43;11.80;90.00
47590;DHT22;33316;52.298;9.056;2022-10-26T05:41:10;11.80;90.00
47590;DHT22;33316;52.298;9.056;2022-10-26T05:43:37;11.90;90.00
47590;DHT22;33316;52.298;9.056;2022-10-26T05:46:04;11.90;89.90
47590;DHT22;33316;52.298;9.056;2022-10-26T05:48:42;11.90;89.90
47590;DHT22;33316;52.298;9.056;2022-10-26T05:51:09;11.90;90.00
47590;DHT22;33316;52.298;9.056;2022-10-26T05:53:37;11.90;90.00
47590;DHT22;33316;52.298;9.056;2022-10-26T05:56:15;11.90;90.00
47590;DHT22;33316;52.298;9.056;2022-10-26T05:58:44;11.90;90.00
47590;DHT22;33316;52.298;9.056;2022-10-26T06:01:17;11.90;90.00
47590;DHT22;33316;52.298;9.056;2022-10-26T06:03:58;11.90;90.00
47590;DHT22;33316;52.298;9.056;2022-10-26T06:06:36;11.90;90.10
47590;DHT22;33316;52.298;9.056;2022-10-26T06:09:04;12.00;90.10
47590;DHT22;33316;52.298;9.056;2022-10-26T06:11:34;12.00;90.40
47590;DHT22;33316;52.298;9.056;2022-10-26T06:14:01;12.00;90.10
47590;DHT22;33316;52.298;9.056;2022-10-26T06:16:36;12.00;90.10
47590;DHT22;33316;52.298;9.056;2022-10-26T06:19:17;12.00;90.10
47590;DHT22;33316;52.298;9.056;2022-10-26T06:22:03;12.00;90.10
47590;DHT22;33316;52.298;9.056;2022-10-26T06:24:39;12.10;90.10
47590;DHT22;33316;52.298;9.056;2022-10-26T06:27:15;12.10;90.10
47590;DHT22;33316;52.298;9.056;2022-10-26T06:29:49;12.10;90.40
47590;DHT22;33316;52.298;9.056;2022-10-26T06:32:19;12.10;90.10
47590;DHT22;33316;52.298;9.056;2022-10-26T06:34:49;12.20;90.10
47590;DHT22;33316;52.298;9.056;2022-10-26T06:37:19;12.20;90.50
47590;DHT22;33316;52.298;9.056;2022-10-26T06:39:48;12.20;90.10
47590;DHT22;33316;52.298;9.056;2022-10-26T06:42:17;12.20;90.10
47590;DHT22;33316;52.298;9.056;2022-10-26T06:44:45;12.20;90.00
47590;DHT22;33316;52.298;9.056;2022-10-26T06:47:17;12.20;90.10
47590;DHT22;33316;52.298;9.056;2022-10-26T06:49:55;12.20;90.50
47590;DHT22;33316;52.298;9.056;2022-10-26T06:52:28;12.20;90.10
47590;DHT22;33316;52.298;9.056;2022-10-26T06:54:58;12.30;90.00
47590;DHT22;33316;52.298;9.056;2022-10-26T06:57:32;12.30;90.00
47590;DHT22;33316;52.298;9.056;2022-10-26T07:00:03;12.30;90.00
47590;DHT22;33316;52.298;9.056;2022-10-26T07:02:30;12.30;90.00
47590;DHT22;33316;52.298;9.056;2022-10-26T07:04:57;12.30;89.90
47590;DHT22;33316;52.298;9.056;2022-10-26T07:07:26;12.40;89.90
47590;DHT22;33316;52.298;9.056;2022-10-26T07:09:54;12.40;89.90
47590;DHT22;33316;52.298;9.056;2022-10-26T07:12:21;12.40;89.80
47590;DHT22;33316;52.298;9.056;2022-10-26T07:14:49;12.40;89.90
47590;DHT22;33316;52.298;9.056;2022-10-26T07:17:16;12.50;89.90
47590;DHT22;33316;52.298;9.056;2022-10-26T07:19:43;12.50;89.80
47590;DHT22;33316;52.298;9.056;2022-10-26T07:22:10;12.50;89.80
47590;DHT22;33316;52.298;9.056;2022-10-26T07:24:36;12.50;89.80
47590;DHT22;33316;52.298;9.056;2022-10-26T07:27:03;12.60;89.80
47590;DHT22;33316;52.298;9.056;2022-10-26T07:29:30;12.60;89.60
47590;DHT22;33316;52.298;9.056;2022-10-26T07:31:59;12.60;89.60
47590;DHT22;33316;52.298;9.056;2022-10-26T07:34:26;12.60;89.60
47590;DHT22;33316;52.298;9.056;2022-10-26T07:36:53;12.70;89.70
47590;DHT22;33316;52.298;9.056;2022-10-26T07:39:19;12.70;89.70
47590;DHT22;33316;52.298;9.056;2022-10-26T07:41:46;12.70;89.60
47590;DHT22;33316;52.298;9.056;2022-10-26T07:44:13;12.70;89.50
47590;DHT22;33316;52.298;9.056;2022-10-26T07:46:40;12.70;89.40
47590;DHT22;33316;52.298;9.056;2022-10-26T07:49:08;12.70;89.60
47590;DHT22;33316;52.298;9.056;2022-10-26T07:51:35;12.80;90.10
47590;DHT22;33316;52.298;9.056;2022-10-26T07:54:02;12.80;89.40
47590;DHT22;33316;52.298;9.056;2022-10-26T07:56:28;12.80;89.30
47590;DHT22;33316;52.298;9.056;2022-10-26T07:58:56;12.90;89.30
47590;DHT22;33316;52.298;9.056;2022-10-26T08:01:23;12.90;89.30
47590;DHT22;33316;52.298;9.056;2022-10-26T08:03:51;13.00;89.30
47590;DHT22;33316;52.298;9.056;2022-10-26T08:06:20;13.00;89.40
47590;DHT22;33316;52.298;9.056;2022-10-26T08:08:47;13.00;89.40
47590;DHT22;33316;52.298;9.056;2022-10-26T08:11:14;13.00;89.30
47590;DHT22;33316;52.298;9.056;2022-10-26T08:13:41;13.10;89.30
47590;DHT22;33316;52.298;9.056;2022-10-26T08:16:08;13.10;89.30
47590;DHT22;33316;52.298;9.056;2022-10-26T08:18:35;13.10;89.60
47590;DHT22;33316;52.298;9.056;2022-10-26T08:21:03;13.20;89.20
47590;DHT22;33316;52.298;9.056;2022-10-26T08:23:32;13.20;89.20
47590;DHT22;33316;52.298;9.056;2022-10-26T08:25:59;13.30;89.20
47590;DHT22;33316;52.298;9.056;2022-10-26T08:28:26;13.30;89.10
47590;DHT22;33316;52.298;9.056;2022-10-26T08:30:53;13.30;89.00
47590;DHT22;33316;52.298;9.056;2022-10-26T08:33:21;13.40;89.10
47590;DHT22;33316;52.298;9.056;2022-10-26T08:35:48;13.50;89.00
47590;DHT22;33316;52.298;9.056;2022-10-26T08:38:15;13.50;88.90
47590;DHT22;33316;52.298;9.056;2022-10-26T08:40:43;13.50;88.80
47590;DHT22;33316;52.298;9.056;2022-10-26T08:43:15;13.60;88.80
47590;DHT22;33316;52.298;9.056;2022-10-26T08:45:47;13.60;88.80
47590;DHT22;33316;52.298;9.056;2022-10-26T08:48:18;13.70;88.70
47590;DHT22;33316;52.298;9.056;2022-10-26T08:50:50;13.70;88.70
47590;DHT22;33316;52.298;9.056;2022-10-26T08:53:21;13.80;88.70
47590;DHT22;33316;52.298;9.056;2022-10-26T08:55:55;13.80;88.60
47590;DHT22;33316;52.298;9.056;2022-10-26T08:58:26;13.90;88.40
47590;DHT22;33316;52.298;9.056;2022-10-26T09:00:54;14.00;88.30
47590;DHT22;33316;52.298;9.056;2022-10-26T09:03:20;14.00;88.10
47590;DHT22;33316;52.298;9.056;2022-10-26T09:06:06;14.10;88.00
47590;DHT22;33316;52.298;9.056;2022-10-26T09:08:38;14.20;87.90
47590;DHT22;33316;52.298;9.056;2022-10-26T09:11:16;14.20;87.10
47590;DHT22;33316;52.298;9.056;2022-10-26T09:13:56;14.30;87.80
47590;DHT22;33316;52.298;9.056;2022-10-26T09:16:27;14.40;87.60
47590;DHT22;33316;52.298;9.056;2022-10-26T09:19:16;14.40;87.50
47590;DHT22;33316;52.298;9.056;2022-10-26T09:21:49;14.40;87.50
47590;DHT22;33316;52.298;9.056;2022-10-26T09:24:21;14.40;87.20
47590;DHT22;33316;52.298;9.056;2022-10-26T09:26:57;14.50;87.10
47590;DHT22;33316;52.298;9.056;2022-10-26T09:29:33;14.50;87.10
47590;DHT22;33316;52.298;9.056;2022-10-26T09:32:02;14.50;87.10
47590;DHT22;33316;52.298;9.056;2022-10-26T09:34:33;14.60;87.10
47590;DHT22;33316;52.298;9.056;2022-10-26T09:37:12;14.60;87.00
47590;DHT22;33316;52.298;9.056;2022-10-26T09:39:45;14.70;86.90
47590;DHT22;33316;52.298;9.056;2022-10-26T09:42:19;14.70;86.80
47590;DHT22;33316;52.298;9.056;2022-10-26T09:44:51;14.80;87.50
47590;DHT22;33316;52.298;9.056;2022-10-26T09:47:30;14.80;86.60
47590;DHT22;33316;52.298;9.056;2022-10-26T09:50:04;14.90;86.40
47590;DHT22;33316;52.298;9.056;2022-10-26T09:52:32;15.00;86.40
47590;DHT22;33316;52.298;9.056;2022-10-26T09:54:59;15.10;87.00
47590;DHT22;33316;52.298;9.056;2022-10-26T09:57:27;15.10;86.10
47590;DHT22;33316;52.298;9.056;2022-10-26T09:59:55;15.20;86.80
47590;DHT22;33316;52.298;9.056;2022-10-26T10:02:36;15.20;85.80
47590;DHT22;33316;52.298;9.056;2022-10-26T10:05:19;15.30;85.80
47590;DHT22;33316;52.298;9.056;2022-10-26T10:07:47;15.30;86.00
47590;DHT22;33316;52.298;9.056;2022-10-26T10:10:16;15.40;85.80
47590;DHT22;33316;52.298;9.056;2022-10-26T10:12:46;15.50;85.70
47590;DHT22;33316;52.298;9.056;2022-10-26T10:15:20;15.50;85.60
47590;DHT22;33316;52.298;9.056;2022-10-26T10:17:48;15.60;85.60
47590;DHT22;33316;52.298;9.056;2022-10-26T10:20:20;15.60;85.30
47590;DHT22;33316;52.298;9.056;2022-10-26T10:22:55;15.70;85.00
47590;DHT22;33316;52.298;9.056;2022-10-26T10:25:32;15.70;84.80
47590;DHT22;33316;52.298;9.056;2022-10-26T10:28:02;15.70;84.60
47590;DHT22;33316;52.298;9.056;2022-10-26T10:30:30;15.80;84.60
47590;DHT22;33316;52.298;9.056;2022-10-26T10:33:05;15.80;84.60
47590;DHT22;33316;52.298;9.056;2022-10-26T10:35:32;15.80;84.60
47590;DHT22;33316;52.298;9.056;2022-10-26T10:37:59;15.90;84.60
47590;DHT22;33316;52.298;9.056;2022-10-26T10:40:27;15.90;84.30
47590;DHT22;33316;52.298;9.056;2022-10-26T10:43:05;15.90;84.30
47590;DHT22;33316;52.298;9.056;2022-10-26T10:45:34;16.00;84.00
47590;DHT22;33316;52.298;9.056;2022-10-26T10:48:03;16.00;83.90
47590;DHT22;33316;52.298;9.056;2022-10-26T10:50:31;16.10;83.80
47590;DHT22;33316;52.298;9.056;2022-10-26T10:53:16;16.10;83.70
47590;DHT22;33316;52.298;9.056;2022-10-26T10:55:54;16.20;83.60
47590;DHT22;33316;52.298;9.056;2022-10-26T10:58:29;16.20;83.50
47590;DHT22;33316;52.298;9.056;2022-10-26T11:00:58;16.30;83.40
47590;DHT22;33316;52.298;9.056;2022-10-26T11:03:44;16.30;83.20
47590;DHT22;33316;52.298;9.056;2022-10-26T11:06:16;16.40;83.10
47590;DHT22;33316;52.298;9.056;2022-10-26T11:08:48;16.40;83.10
47590;DHT22;33316;52.298;9.056;2022-10-26T11:11:19;16.50;82.90
47590;DHT22;33316;52.298;9.056;2022-10-26T11:13:55;16.50;82.80
47590;DHT22;33316;52.298;9.056;2022-10-26T11:16:27;16.50;82.60
47590;DHT22;33316;52.298;9.056;2022-10-26T11:18:59;16.60;82.80
47590;DHT22;33316;52.298;9.056;2022-10-26T11:21:29;16.70;82.60
47590;DHT22;33316;52.298;9.056;2022-10-26T11:24:05;16.70;82.50
47590;DHT22;33316;52.298;9.056;2022-10-26T11:26:40;16.70;82.30
47590;DHT22;33316;52.298;9.056;2022-10-26T11:29:20;16.80;82.10
47590;DHT22;33316;52.298;9.056;2022-10-26T11:31:53;16.90;82.00
47590;DHT22;33316;52.298;9.056;2022-10-26T11:34:28;16.90;81.90
47590;DHT22;33316;52.298;9.056;2022-10-26T11:37:03;17.00;81.90
47590;DHT22;33316;52.298;9.056;2022-10-26T11:39:37;17.10;81.80
47590;DHT22;33316;52.298;9.056;2022-10-26T11:42:16;17.20;81.60
47590;DHT22;33316;52.298;9.056;2022-10-26T11:44:50;17.20;81.30
47590;DHT22;33316;52.298;9.056;2022-10-26T11:47:23;17.30;80.90
47590;DHT22;33316;52.298;9.056;2022-10-26T11:49:56;17.30;80.80
47590;DHT22;33316;52.298;9.056;2022-10-26T11:52:31;17.40;80.60
47590;DHT22;33316;52.298;9.056;2022-10-26T11:54:59;17.50;80.30
47590;DHT22;33316;52.298;9.056;2022-10-26T11:57:29;17.60;80.20
47590;DHT22;33316;52.298;9.056;2022-10-26T12:00:02;17.60;79.80
47590;DHT22;33316;52.298;9.056;2022-10-26T12:02:31;17.70;79.60
47590;DHT22;33316;52.298;9.056;2022-10-26T12:05:02;17.70;79.50
47590;DHT22;33316;52.298;9.056;2022-10-26T12:07:34;17.70;79.30
47590;DHT22;33316;52.298;9.056;2022-10-26T12:10:02;17.80;79.10
47590;DHT22;33316;52.298;9.056;2022-10-26T12:12:34;17.80;78.70
47590;DHT22;33316;52.298;9.056;2022-10-26T12:15:15;17.90;78.40
47590;DHT22;33316;52.298;9.056;2022-10-26T12:17:49;17.90;77.90
47590;DHT22;33316;52.298;9.056;2022-10-26T12:20:46;18.00;78.00
47590;DHT22;33316;52.298;9.056;2022-10-26T12:23:16;18.10;78.10
47590;DHT22;33316;52.298;9.056;2022-10-26T12:25:43;18.10;78.20
47590;DHT22;33316;52.298;9.056;2022-10-26T12:28:38;18.20;78.10
47590;DHT22;33316;52.298;9.056;2022-10-26T12:31:43;18.20;77.70
47590;DHT22;33316;52.298;9.056;2022-10-26T12:34:11;18.30;77.30
47590;DHT22;33316;52.298;9.056;2022-10-26T12:36:49;18.40;77.20
47590;DHT22;33316;52.298;9.056;2022-10-26T12:39:36;18.40;76.60
47590;DHT22;33316;52.298;9.056;2022-10-26T12:45:15;18.50;76.00
47590;DHT22;33316;52.298;9.056;2022-10-26T12:48:02;18.50;76.10
47590;DHT22;33316;52.298;9.056;2022-10-26T12:50:29;18.60;75.80
47590;DHT22;33316;52.298;9.056;2022-10-26T12:52:57;18.60;75.90
47590;DHT22;33316;52.298;9.056;2022-10-26T12:55:49;18.60;75.80
47590;DHT22;33316;52.298;9.056;2022-10-26T13:01:37;18.70;75.80
47590;DHT22;33316;52.298;9.056;2022-10-26T13:04:27;18.80;75.60
47590;DHT22;33316;52.298;9.056;2022-10-26T13:07:19;18.80;75.20
47590;DHT22;33316;52.298;9.056;2022-10-26T13:09:54;18.90;75.20
47590;DHT22;33316;52.298;9.056;2022-10-26T13:12:22;18.90;75.10
47590;DHT22;33316;52.298;9.056;2022-10-26T13:15:17;18.90;74.80
47590;DHT22;33316;52.298;9.056;2022-10-26T13:17:52;18.90;74.30
47590;DHT22;33316;52.298;9.056;2022-10-26T13:20:23;18.90;74.20
47590;DHT22;33316;52.298;9.056;2022-10-26T13:22:50;19.00;74.20
47590;DHT22;33316;52.298;9.056;2022-10-26T13:25:23;19.00;74.40
47590;DHT22;33316;52.298;9.056;2022-10-26T13:28:00;18.90;74.50
47590;DHT22;33316;52.298;9.056;2022-10-26T13:30:43;19.00;74.50
47590;DHT22;33316;52.298;9.056;2022-10-26T13:33:23;19.00;74.00
47590;DHT22;33316;52.298;9.056;2022-10-26T13:35:55;19.10;74.10
47590;DHT22;33316;52.298;9.056;2022-10-26T13:38:27;19.10;74.10
47590;DHT22;33316;52.298;9.056;2022-10-26T13:41:02;19.10;74.10
47590;DHT22;33316;52.298;9.056;2022-10-26T13:43:31;19.10;73.90
47590;DHT22;33316;52.298;9.056;2022-10-26T13:45:59;19.10;73.80
47590;DHT22;33316;52.298;9.056;2022-10-26T13:48:34;19.10;74.00
47590;DHT22;33316;52.298;9.056;2022-10-26T13:51:11;19.10;73.80
47590;DHT22;33316;52.298;9.056;2022-10-26T13:53:44;19.20;73.70
47590;DHT22;33316;52.298;9.056;2022-10-26T13:56:18;19.20;73.70
47590;DHT22;33316;52.298;9.056;2022-10-26T13:58:49;19.20;73.80
47590;DHT22;33316;52.298;9.056;2022-10-26T14:01:19;19.20;73.80
47590;DHT22;33316;52.298;9.056;2022-10-26T14:03:47;19.10;73.80
47590;DHT22;33316;52.298;9.056;2022-10-26T14:06:20;19.10;73.90
47590;DHT22;33316;52.298;9.056;2022-10-26T14:08:50;19.10;74.00
47590;DHT22;33316;52.298;9.056;2022-10-26T14:11:18;19.10;74.10
47590;DHT22;33316;52.298;9.056;2022-10-26T14:13:47;19.10;74.80
47590;DHT22;33316;52.298;9.056;2022-10-26T14:16:16;19.10;74.10
47590;DHT22;33316;52.298;9.056;2022-10-26T14:18:45;19.10;74.00
47590;DHT22;33316;52.298;9.056;2022-10-26T14:21:16;19.10;74.00
47590;DHT22;33316;52.298;9.056;2022-10-26T14:23:47;19.10;74.10
47590;DHT22;33316;52.298;9.056;2022-10-26T14:26:22;19.10;74.00
47590;DHT22;33316;52.298;9.056;2022-10-26T14:28:51;19.10;74.10
47590;DHT22;33316;52.298;9.056;2022-10-26T14:31:22;19.10;74.20
47590;DHT22;33316;52.298;9.056;2022-10-26T14:33:50;19.10;74.30
47590;DHT22;33316;52.298;9.056;2022-10-26T14:36:20;19.00;74.20
47590;DHT22;33316;52.298;9.056;2022-10-26T14:38:48;19.10;74.50
47590;DHT22;33316;52.298;9.056;2022-10-26T14:41:18;19.10;74.40
47590;DHT22;33316;52.298;9.056;2022-10-26T14:43:45;19.10;74.50
47590;DHT22;33316;52.298;9.056;2022-10-26T14:46:14;19.00;74.50
47590;DHT22;33316;52.298;9.056;2022-10-26T14:48:50;19.00;74.60
47590;DHT22;33316;52.298;9.056;2022-10-26T14:51:20;19.10;74.50
47590;DHT22;33316;52.298;9.056;2022-10-26T14:53:48;19.00;74.60
47590;DHT22;33316;52.298;9.056;2022-10-26T14:56:23;19.00;74.70
47590;DHT22;33316;52.298;9.056;2022-10-26T14:58:50;19.00;74.80
47590;DHT22;33316;52.298;9.056;2022-10-26T15:01:30;18.90;74.90
47590;DHT22;33316;52.298;9.056;2022-10-26T15:03:59;18.90;75.00
47590;DHT22;33316;52.298;9.056;2022-10-26T15:06:40;18.90;75.20
47590;DHT22;33316;52.298;9.056;2022-10-26T15:09:29;18.80;75.40
47590;DHT22;33316;52.298;9.056;2022-10-26T15:11:56;18.80;75.60
47590;DHT22;33316;52.298;9.056;2022-10-26T15:14:23;18.80;75.70
47590;DHT22;33316;52.298;9.056;2022-10-26T15:16:52;18.70;75.80
47590;DHT22;33316;52.298;9.056;2022-10-26T15:19:20;18.70;75.90
47590;DHT22;33316;52.298;9.056;2022-10-26T15:21:51;18.60;76.00
47590;DHT22;33316;52.298;9.056;2022-10-26T15:24:31;18.60;76.20
47590;DHT22;33316;52.298;9.056;2022-10-26T15:26:59;18.60;76.20
47590;DHT22;33316;52.298;9.056;2022-10-26T15:29:47;18.50;76.40
47590;DHT22;33316;52.298;9.056;2022-10-26T15:32:19;18.50;76.50
47590;DHT22;33316;52.298;9.056;2022-10-26T15:34:48;18.50;76.80
47590;DHT22;33316;52.298;9.056;2022-10-26T15:37:17;18.50;76.80
47590;DHT22;33316;52.298;9.056;2022-10-26T15:39:43;18.40;76.90
47590;DHT22;33316;52.298;9.056;2022-10-26T15:42:12;18.40;77.00
47590;DHT22;33316;52.298;9.056;2022-10-26T15:44:39;18.40;77.20
47590;DHT22;33316;52.298;9.056;2022-10-26T15:47:15;18.30;77.20
47590;DHT22;33316;52.298;9.056;2022-10-26T15:49:43;18.30;77.30
47590;DHT22;33316;52.298;9.056;2022-10-26T15:52:10;18.30;77.50
47590;DHT22;33316;52.298;9.056;2022-10-26T15:54:38;18.20;77.60
47590;DHT22;33316;52.298;9.056;2022-10-26T15:57:05;18.20;77.80
47590;DHT22;33316;52.298;9.056;2022-10-26T15:59:34;18.10;77.90
47590;DHT22;33316;52.298;9.056;2022-10-26T16:02:01;18.10;78.00
47590;DHT22;33316;52.298;9.056;2022-10-26T16:04:28;18.10;78.20
47590;DHT22;33316;52.298;9.056;2022-10-26T16:06:54;18.00;78.20
47590;DHT22;33316;52.298;9.056;2022-10-26T16:09:25;18.00;78.40